GRZ502 Details

Departure: Juneau International Airport (PAJN)
Arrival: Ted Stevens Anchorage International Airport (PANC) at N/A
Route: CHLKT1 ALATY JOH WITTI4
Notes:


Current Weather Information
PAJN 190553Z 11010KT 10SM FEW028 BKN060 BKN080 06/04 A2948 RMK AO2 RAB20E29 SLP983 P0000 60004 T00610044 10067 20050 51011
PANC 190553Z 18003KT 10SM BKN055 BKN080 OVC200 04/02 A2936 RMK AO2 SLP943 T00390017 10078 20028 52021 $